TimeCST,TemperatureF,Dew PointF,Humidity,Sea Level PressureIn,VisibilityMPH,Wind Direction,Wind SpeedMPH,Gust SpeedMPH,PrecipitationIn,Events,Conditions,WindDirDegrees,DateUTC
12:54 AM,28.0,15.1,58,30.10,10.0,NW,11.5,-,N/A,,Overcast,320,2014-01-15 06:54:00
1:54 AM,27.0,15.1,61,30.12,10.0,NW,15.0,-,N/A,,Overcast,320,2014-01-15 07:54:00
2:54 AM,26.1,12.0,55,30.13,10.0,NW,11.5,-,N/A,,Overcast,310,2014-01-15 08:54:00
3:54 AM,25.0,12.0,58,30.13,10.0,NW,12.7,23.0,N/A,,Overcast,310,2014-01-15 09:54:00
4:54 AM,24.1,12.0,60,30.13,10.0,NW,13.8,-,N/A,,Mostly Cloudy,310,2014-01-15 10:54:00
5:54 AM,23.0,12.0,63,30.15,10.0,NW,11.5,-,N/A,,Mostly Cloudy,320,2014-01-15 11:54:00
6:54 AM,21.9,10.9,63,30.17,10.0,NW,13.8,-,N/A,,Clear,320,2014-01-15 12:54:00
7:54 AM,21.9,10.9,63,30.19,10.0,NNW,12.7,-,N/A,,Scattered Clouds,330,2014-01-15 13:54:00
8:21 AM,21.9,10.9,63,30.19,10.0,NW,13.8,-,N/A,,Mostly Cloudy,310,2014-01-15 14:21:00
8:54 AM,21.9,10.9,63,30.22,10.0,NW,13.8,-,N/A,,Overcast,310,2014-01-15 14:54:00
9:25 AM,21.9,10.9,63,30.21,10.0,WNW,12.7,-,N/A,,Scattered Clouds,300,2014-01-15 15:25:00
9:54 AM,21.9,10.0,60,30.23,10.0,WNW,8.1,21.9,N/A,,Clear,300,2014-01-15 15:54:00
10:54 AM,23.0,10.0,58,30.23,10.0,WNW,13.8,-,N/A,,Clear,300,2014-01-15 16:54:00
11:54 AM,24.1,10.0,55,30.21,10.0,WNW,10.4,-,N/A,,Clear,300,2014-01-15 17:54:00
12:54 PM,26.1,10.0,51,30.18,10.0,West,12.7,17.3,N/A,,Clear,270,2014-01-15 18:54:00
1:54 PM,27.0,10.9,51,30.17,10.0,WNW,12.7,-,N/A,,Clear,290,2014-01-15 19:54:00
2:54 PM,27.0,10.9,51,30.15,10.0,West,10.4,-,N/A,,Clear,280,2014-01-15 20:54:00
3:54 PM,27.0,12.0,53,30.15,10.0,WSW,9.2,-,N/A,,Clear,250,2014-01-15 21:54:00
4:54 PM,27.0,12.9,56,30.15,10.0,West,10.4,-,N/A,,Clear,280,2014-01-15 22:54:00
5:54 PM,26.1,14.0,60,30.12,10.0,WSW,3.5,-,N/A,,Clear,250,2014-01-15 23:54:00
6:54 PM,23.0,15.1,72,30.11,10.0,SSW,4.6,-,N/A,,Clear,200,2014-01-16 00:54:00
7:54 PM,23.0,16.0,74,30.08,10.0,South,5.8,-,N/A,,Clear,180,2014-01-16 01:54:00
8:54 PM,21.9,16.0,78,30.06,10.0,South,5.8,-,N/A,,Clear,170,2014-01-16 02:54:00
9:54 PM,25.0,17.1,72,30.04,10.0,South,6.9,-,N/A,,Mostly Cloudy,180,2014-01-16 03:54:00
10:54 PM,27.0,16.0,63,30.01,10.0,South,9.2,-,N/A,,Overcast,170,2014-01-16 04:54:00
11:54 PM,28.0,15.1,58,29.96,10.0,South,8.1,-,N/A,,Overcast,190,2014-01-16 05:54:00